Time;durP1;ratioP1;P1;durP2;ratioP2;P2;SDS_P1;SDS_P2;PMS_P1;PMS_P2;Temp;Humidity;BMP_temperature;BMP_pressure;BME280_temperature;BME280_humidity;BME280_pressure;Samples;Min_cycle;Max_cycle;Signal;HPM_P1;HPM_P2
2023/10/27 00:01:30;;;;;;;1.63;1.53;;;10.60;97.00;9.70;93864.00;;;;5053702;28;20258;-58
2023/10/27 00:03:57;;;;;;;2.47;1.53;;;10.40;96.50;9.60;93863.00;;;;5053851;28;20193;-58
2023/10/27 00:06:24;;;;;;;1.33;1.33;;;10.40;97.20;9.80;93864.00;;;;5052454;28;20206;-58
2023/10/27 00:08:52;;;;;;;1.80;1.70;;;10.50;97.50;9.80;93852.00;;;;5052431;28;20560;-58
2023/10/27 00:11:19;;;;;;;0.60;0.60;;;10.50;96.50;9.80;93850.00;;;;5052289;28;20207;-58
2023/10/27 00:13:47;;;;;;;0.60;0.60;;;10.50;96.80;9.80;93852.00;;;;5035802;28;20227;-59
2023/10/27 00:16:14;;;;;;;0.60;0.60;;;10.50;96.40;9.70;93852.00;;;;5053997;28;20679;-58
2023/10/27 00:18:41;;;;;;;0.90;0.90;;;10.40;95.90;9.70;93848.00;;;;5059821;28;20190;-58
2023/10/27 00:21:08;;;;;;;15.17;1.17;;;10.40;97.10;9.70;93865.00;;;;5061356;28;20192;-59
2023/10/27 00:23:35;;;;;;;2.00;1.63;;;10.40;96.80;9.70;93867.00;;;;5061905;28;20271;-59
2023/10/27 00:26:04;;;;;;;1.03;1.03;;;10.40;96.80;9.70;93863.00;;;;5062064;28;20556;-59
2023/10/27 00:28:31;;;;;;;0.53;0.53;;;10.40;96.10;9.70;93855.00;;;;5061235;28;20194;-59
2023/10/27 00:31:00;;;;;;;0.60;0.60;;;10.40;96.00;9.70;93862.00;;;;5061384;28;20195;-59
2023/10/27 00:33:27;;;;;;;1.10;1.10;;;10.40;96.50;9.60;93866.00;;;;5061417;28;20253;-60
2023/10/27 00:35:55;;;;;;;0.60;0.60;;;;;9.70;93861.00;;;;5061214;28;20211;-59
2023/10/27 00:38:22;;;;;;;0.83;0.83;;;10.30;96.30;9.60;93844.00;;;;5060520;28;20196;-58
2023/10/27 00:40:50;;;;;;;0.80;0.80;;;10.30;96.40;9.60;93846.00;;;;5060504;28;20196;-58
2023/10/27 00:43:19;;;;;;;0.70;0.70;;;10.20;96.60;9.60;93845.00;;;;5060317;28;20195;-59
2023/10/27 00:45:50;;;;;;;0.97;0.97;;;10.30;96.60;9.50;93853.00;;;;5060693;28;20215;-58
2023/10/27 00:48:18;;;;;;;0.70;0.70;;;10.30;96.30;9.50;93847.00;;;;5060846;28;20172;-58
2023/10/27 00:50:45;;;;;;;0.90;0.90;;;10.30;96.00;9.50;93841.00;;;;5060396;28;20188;-59
2023/10/27 00:53:14;;;;;;;0.80;0.80;;;10.20;96.30;9.70;93834.00;;;;5060329;28;20210;-59
2023/10/27 00:55:42;;;;;;;0.70;0.70;;;10.30;95.90;9.60;93835.00;;;;5060114;28;20220;-59
2023/10/27 00:58:11;;;;;;;0.87;0.87;;;10.30;96.00;9.50;93835.00;;;;5060299;28;20199;-60
2023/10/27 01:00:39;;;;;;;0.60;0.60;;;10.30;95.20;9.60;93835.00;;;;5060167;28;20196;-58
2023/10/27 01:03:06;;;;;;;0.70;0.70;;;10.30;95.40;9.60;93832.00;;;;5060268;28;20286;-58
2023/10/27 01:05:33;;;;;;;0.80;0.80;;;10.40;94.70;9.50;93827.00;;;;5060037;28;20218;-58
2023/10/27 01:08:01;;;;;;;0.70;0.70;;;10.30;93.60;9.40;93830.00;;;;5042233;28;20313;-58
2023/10/27 01:10:28;;;;;;;0.60;0.60;;;10.20;93.70;9.40;93830.00;;;;5060028;28;20188;-59
2023/10/27 01:12:55;;;;;;;0.50;0.50;;;10.10;94.60;9.30;93836.00;;;;5060061;28;20204;-58
2023/10/27 01:15:22;;;;;;;0.50;0.50;;;10.00;94.30;9.50;93829.00;;;;5059785;28;20216;-58
2023/10/27 01:17:51;;;;;;;0.73;0.73;;;10.20;94.60;9.30;93837.00;;;;5059921;28;20188;-59
2023/10/27 01:20:18;;;;;;;0.60;0.60;;;10.00;94.00;9.30;93830.00;;;;5060059;28;20192;-58
2023/10/27 01:22:47;;;;;;;0.60;0.60;;;10.00;94.30;9.30;93826.00;;;;5059735;28;20571;-58
2023/10/27 01:25:15;;;;;;;0.57;0.57;;;10.00;94.60;9.30;93829.00;;;;5059860;28;20277;-58
2023/10/27 01:27:42;;;;;;;0.93;0.83;;;10.00;94.80;9.30;93821.00;;;;5059921;28;20188;-58
2023/10/27 01:30:11;;;;;;;1.00;1.00;;;10.00;95.50;9.20;93815.00;;;;5056384;28;20557;-58
2023/10/27 01:32:40;;;;;;;0.70;0.70;;;10.00;95.20;9.30;93824.00;;;;5056516;28;20585;-58
2023/10/27 01:35:08;;;;;;;0.60;0.60;;;10.00;95.50;9.20;93816.00;;;;5056796;28;20252;-59
2023/10/27 01:37:35;;;;;;;0.60;0.60;;;9.90;95.40;9.00;93810.00;;;;5056679;28;20196;-58
2023/10/27 01:40:05;;;;;;;0.60;0.60;;;9.70;96.30;9.10;93806.00;;;;5057589;28;20586;-58
2023/10/27 01:42:34;;;;;;;0.90;0.90;;;9.80;97.20;9.10;93813.00;;;;5056764;28;20215;-58
2023/10/27 01:45:04;;;;;;;0.60;0.60;;;9.80;97.10;9.20;93811.00;;;;5057369;28;20196;-58
2023/10/27 01:47:32;;;;;;;0.90;0.90;;;9.90;97.00;9.20;93799.00;;;;5057055;28;20216;-61
2023/10/27 01:49:59;;;;;;;0.60;0.60;;;9.90;96.50;9.20;93796.00;;;;5056200;28;20191;-59
2023/10/27 01:52:26;;;;;;;0.60;0.60;;;9.90;96.30;9.10;93795.00;;;;5056021;28;20553;-60
2023/10/27 01:54:54;;;;;;;1.20;1.20;;;9.90;96.30;9.10;93792.00;;;;5056218;28;20192;-59
2023/10/27 01:57:23;;;;;;;0.60;0.60;;;9.90;96.50;9.10;93785.00;;;;5056396;28;20208;-58
2023/10/27 01:59:51;;;;;;;0.80;0.80;;;9.90;96.80;9.10;93781.00;;;;5056236;28;20314;-58
2023/10/27 02:02:18;;;;;;;0.70;0.70;;;9.80;96.60;9.20;93780.00;;;;5056610;28;20200;-58
2023/10/27 02:04:45;;;;;;;0.60;0.60;;;9.80;96.90;9.20;93770.00;;;;5056680;28;20204;-58
2023/10/27 02:07:14;;;;;;;7.60;1.00;;;9.90;96.50;9.20;93779.00;;;;5056133;28;20195;-58
2023/10/27 02:09:42;;;;;;;0.70;0.70;;;9.90;96.10;9.00;93773.00;;;;5038313;28;20644;-58
2023/10/27 02:12:10;;;;;;;0.57;0.57;;;9.80;95.80;9.10;93787.00;;;;5056715;28;20686;-59
2023/10/27 02:14:38;;;;;;;0.83;0.83;;;9.80;96.60;9.10;93787.00;;;;5056195;28;20184;-59
2023/10/27 02:17:05;;;;;;;0.90;0.90;;;9.80;96.60;9.00;93783.00;;;;5056408;28;20285;-58
2023/10/27 02:19:32;;;;;;;1.03;0.93;;;9.70;96.60;9.20;93786.00;;;;5056197;28;20188;-58
2023/10/27 02:21:59;;;;;;;0.60;0.60;;;9.80;96.10;9.00;93793.00;;;;5055943;28;20657;-59
2023/10/27 02:24:26;;;;;;;0.70;0.70;;;9.70;96.30;9.00;93791.00;;;;5056144;28;20231;-60
2023/10/27 02:26:53;;;;;;;1.07;1.07;;;9.70;96.80;9.10;93788.00;;;;5055794;28;20196;-58
2023/10/27 02:29:20;;;;;;;0.60;0.60;;;9.70;96.80;9.10;93784.00;;;;5056001;28;20613;-58
2023/10/27 02:31:49;;;;;;;0.57;0.57;;;9.80;97.00;9.10;93788.00;;;;5056104;28;20287;-60
2023/10/27 02:34:16;;;;;;;1.87;0.90;;;9.80;95.90;9.00;93783.00;;;;5056286;28;20502;-59
2023/10/27 02:36:43;;;;;;;1.00;1.00;;;9.70;96.50;9.10;93774.00;;;;5056566;28;20215;-58
2023/10/27 02:39:10;;;;;;;0.60;0.60;;;9.80;96.20;9.10;93778.00;;;;5055846;28;20176;-58
2023/10/27 02:41:37;;;;;;;0.63;0.63;;;9.80;96.10;9.10;93765.00;;;;5055647;28;20251;-59
2023/10/27 02:44:05;;;;;;;0.50;0.50;;;9.80;96.30;9.20;93762.00;;;;5056093;28;20648;-59
2023/10/27 02:46:33;;;;;;;0.83;0.83;;;9.90;96.40;9.20;93752.00;;;;5037816;28;20200;-58
2023/10/27 02:49:02;;;;;;;0.63;0.63;;;9.90;96.20;9.20;93749.00;;;;5055699;28;20220;-58
2023/10/27 02:51:30;;;;;;;0.87;0.87;;;9.90;96.00;9.20;93758.00;;;;5055961;28;20208;-58
2023/10/27 02:53:57;;;;;;;0.60;0.60;;;9.90;95.90;9.20;93750.00;;;;5055321;28;20192;-58
2023/10/27 02:56:25;;;;;;;0.93;0.93;;;10.00;95.40;9.00;93750.00;;;;5055302;28;20219;-58
2023/10/27 02:58:52;;;;;;;0.77;0.77;;;9.80;95.30;9.00;93748.00;;;;5055182;28;20196;-59
2023/10/27 03:01:19;;;;;;;0.50;0.50;;;9.80;96.10;9.00;93752.00;;;;5055806;28;20216;-59
2023/10/27 03:03:47;;;;;;;0.90;0.90;;;9.80;96.50;9.10;93734.00;;;;5055008;28;20188;-59
2023/10/27 03:06:15;;;;;;;0.80;0.80;;;9.80;96.90;9.10;93747.00;;;;5055224;28;20192;-59
2023/10/27 03:08:43;;;;;;;0.77;0.77;;;9.80;96.90;9.10;93732.00;;;;5055498;28;20199;-59
2023/10/27 03:11:10;;;;;;;0.60;0.60;;;9.90;97.20;9.10;93734.00;;;;5055332;28;20187;-59
2023/10/27 03:13:37;;;;;;;0.80;0.80;;;9.90;97.20;9.20;93739.00;;;;5055496;28;20188;-59
2023/10/27 03:16:05;;;;;;;0.90;0.90;;;9.90;97.20;9.20;93756.00;;;;5055060;28;20216;-60
2023/10/27 03:18:32;;;;;;;0.50;0.50;;;10.00;98.00;9.10;93753.00;;;;5055027;28;20193;-60
2023/10/27 03:21:03;;;;;;;0.80;0.80;;;9.90;96.40;9.20;93750.00;;;;5055164;28;20663;-61
2023/10/27 03:23:32;;;;;;;0.70;0.70;;;9.90;97.00;9.20;93749.00;;;;5054917;28;20259;-59
2023/10/27 03:25:59;;;;;;;0.70;0.70;;;10.00;96.90;9.20;93754.00;;;;5055096;28;20198;-59
2023/10/27 03:28:26;;;;;;;0.60;0.60;;;10.00;96.90;9.20;93734.00;;;;5055060;28;20210;-59
2023/10/27 03:30:54;;;;;;;0.70;0.70;;;10.00;96.90;9.30;93746.00;;;;5054434;28;20188;-59
2023/10/27 03:33:21;;;;;;;0.60;0.60;;;10.00;96.80;9.30;93737.00;;;;5054346;28;20799;-59
2023/10/27 03:35:48;;;;;;;0.47;0.47;;;10.10;96.80;9.30;93730.00;;;;5054967;28;20219;-59
2023/10/27 03:38:17;;;;;;;1.57;1.47;;;10.10;96.50;9.30;93734.00;;;;5054547;28;20671;-59
2023/10/27 03:40:47;;;;;;;0.60;0.60;;;10.10;96.30;9.20;93745.00;;;;5054607;28;20188;-59
2023/10/27 03:43:15;;;;;;;0.73;0.73;;;10.00;95.00;9.30;93741.00;;;;5053861;28;20250;-59
2023/10/27 03:45:42;;;;;;;0.70;0.70;;;10.00;95.40;9.10;93744.00;;;;5054203;28;20197;-58
2023/10/27 03:48:09;;;;;;;0.60;0.60;;;9.80;94.90;9.00;93745.00;;;;5054592;28;20184;-58
2023/10/27 03:50:36;;;;;;;0.80;0.80;;;9.70;95.30;8.80;93740.00;;;;5054743;28;20659;-59
2023/10/27 03:53:04;;;;;;;0.90;0.90;;;9.60;98.80;8.80;93740.00;;;;5053831;28;20212;-59
2023/10/27 03:55:31;;;;;;;0.50;0.50;;;9.50;99.90;8.70;93743.00;;;;5054331;28;20191;-59
2023/10/27 03:58:14;;;;;;;0.63;0.63;;;9.50;99.90;8.80;93738.00;;;;5054459;28;20199;-59
2023/10/27 04:00:41;;;;;;;0.60;0.60;;;9.60;99.90;8.80;93742.00;;;;5036294;28;20315;-58
2023/10/27 04:03:08;;;;;;;0.57;0.57;;;9.60;99.90;8.90;93732.00;;;;5054519;28;20227;-58
2023/10/27 04:05:35;;;;;;;0.90;0.90;;;9.60;99.90;8.90;93729.00;;;;5053998;28;20675;-58
2023/10/27 04:08:02;;;;;;;0.60;0.60;;;9.70;99.90;8.90;93737.00;;;;5054476;28;20529;-59
2023/10/27 04:10:31;;;;;;;0.80;0.80;;;9.70;99.90;8.90;93738.00;;;;5054556;28;20193;-59
2023/10/27 04:13:00;;;;;;;0.80;0.80;;;9.70;99.90;9.10;93721.00;;;;5054108;28;20203;-58
2023/10/27 04:15:27;;;;;;;0.50;0.50;;;9.70;99.90;9.00;93744.00;;;;5053976;28;20183;-58
2023/10/27 04:17:54;;;;;;;0.60;0.60;;;9.70;99.90;9.00;93740.00;;;;5053737;28;20200;-58
2023/10/27 04:20:21;;;;;;;0.50;0.50;;;9.80;99.90;8.90;93731.00;;;;5053866;28;20667;-58
2023/10/27 04:22:49;;;;;;;0.60;0.60;;;9.60;99.90;9.00;93721.00;;;;5053724;28;20211;-58
2023/10/27 04:25:16;;;;;;;0.70;0.70;;;9.70;99.90;9.10;93727.00;;;;5054169;28;20191;-58
2023/10/27 04:27:43;;;;;;;0.73;0.73;;;9.80;99.90;9.00;93738.00;;;;5054559;28;20255;-58
2023/10/27 04:30:13;;;;;;;0.50;0.50;;;9.60;95.70;9.10;93736.00;;;;5054569;28;20199;-58
2023/10/27 04:32:40;;;;;;;0.53;0.53;;;9.80;96.80;9.00;93734.00;;;;5054165;28;20216;-58
2023/10/27 04:35:09;;;;;;;0.60;0.60;;;9.80;96.30;8.90;93739.00;;;;5054189;28;20597;-59
2023/10/27 04:37:36;;;;;;;0.50;0.50;;;9.70;96.20;8.80;93738.00;;;;5054162;28;20223;-59
2023/10/27 04:40:04;;;;;;;0.73;0.73;;;9.60;95.70;8.80;93747.00;;;;5054358;28;20188;-59
2023/10/27 04:42:31;;;;;;;0.77;0.77;;;9.60;96.60;8.70;93743.00;;;;5053940;28;20216;-58
2023/10/27 04:44:58;;;;;;;0.80;0.80;;;9.50;97.30;8.70;93735.00;;;;5053433;28;20725;-58
2023/10/27 04:47:26;;;;;;;0.60;0.60;;;9.50;97.30;8.70;93742.00;;;;5053544;28;20215;-60
2023/10/27 04:49:54;;;;;;;0.60;0.60;;;9.50;97.50;8.70;93753.00;;;;5053903;28;20188;-59
2023/10/27 04:52:20;;;;;;;1.00;1.00;;;9.40;97.40;8.70;93750.00;;;;5053241;28;20261;-59
2023/10/27 04:54:47;;;;;;;0.60;0.60;;;9.40;97.90;8.80;93749.00;;;;5053229;28;20212;-59
2023/10/27 04:57:14;;;;;;;0.97;0.97;;;9.40;98.50;8.70;93750.00;;;;5053326;28;20216;-59
2023/10/27 04:59:41;;;;;;;0.60;0.60;;;9.50;98.00;8.80;93749.00;;;;5053674;28;20188;-59
2023/10/27 05:02:08;;;;;;;0.50;0.50;;;9.40;98.40;8.90;93750.00;;;;5053149;28;20231;-58
2023/10/27 05:04:36;;;;;;;0.80;0.80;;;9.60;98.00;9.10;93747.00;;;;5036339;28;20199;-58
2023/10/27 05:07:05;;;;;;;0.50;0.50;;;9.80;97.60;9.00;93749.00;;;;5057566;28;20561;-60
2023/10/27 05:09:33;;;;;;;0.50;0.50;;;9.70;98.50;9.00;93748.00;;;;5057175;28;20195;-59
2023/10/27 05:12:00;;;;;;;0.60;0.60;;;9.70;98.40;9.00;93753.00;;;;5057100;28;20285;-59
2023/10/27 05:14:27;;;;;;;0.53;0.53;;;9.70;97.90;9.00;93747.00;;;;5057018;28;20188;-59
2023/10/27 05:16:54;;;;;;;0.60;0.60;;;9.70;97.60;9.00;93758.00;;;;5057173;28;20215;-59
2023/10/27 05:19:21;;;;;;;0.50;0.50;;;9.70;97.90;8.90;93758.00;;;;5057207;28;20214;-60
2023/10/27 05:21:49;;;;;;;10.80;0.80;;;9.60;98.20;8.90;93767.00;;;;5057077;28;20208;-59
2023/10/27 05:24:17;;;;;;;0.87;0.87;;;9.60;98.20;8.60;93769.00;;;;5057139;28;20656;-58
2023/10/27 05:26:44;;;;;;;0.50;0.50;;;9.40;98.70;8.60;93771.00;;;;5056027;28;20199;-58
2023/10/27 05:29:11;;;;;;;0.60;0.60;;;9.30;99.90;8.70;93771.00;;;;5057676;28;20192;-58
2023/10/27 05:31:39;;;;;;;0.80;0.80;;;9.40;99.90;8.80;93775.00;;;;5057163;28;20208;-59
2023/10/27 05:34:06;;;;;;;0.60;0.60;;;9.50;99.90;8.70;93771.00;;;;5057116;28;20193;-59
2023/10/27 05:36:35;;;;;;;0.60;0.60;;;9.50;99.60;8.80;93779.00;;;;5057057;28;20694;-61
2023/10/27 05:39:04;;;;;;;0.47;0.47;;;9.60;99.70;8.90;93793.00;;;;5057606;28;20222;-59
2023/10/27 05:41:32;;;;;;;0.60;0.60;;;9.60;99.90;9.00;93784.00;;;;5057235;28;20322;-59
2023/10/27 05:43:59;;;;;;;0.70;0.70;;;9.70;98.90;8.90;93794.00;;;;5056605;28;20184;-58
2023/10/27 05:46:28;;;;;;;0.70;0.70;;;9.70;95.80;8.80;93786.00;;;;5056378;28;20195;-59
2023/10/27 05:49:00;;;;;;;0.60;0.60;;;9.50;96.60;8.80;93795.00;;;;5056234;28;20215;-59
2023/10/27 05:51:27;;;;;;;0.60;0.60;;;9.50;97.60;8.80;93806.00;;;;5056051;28;20215;-59
2023/10/27 05:53:54;;;;;;;0.70;0.70;;;9.50;97.50;8.90;93809.00;;;;5056043;28;20198;-59
2023/10/27 05:56:22;;;;;;;0.70;0.70;;;9.60;97.50;9.00;93820.00;;;;5056548;28;20774;-59
2023/10/27 05:58:49;;;;;;;0.60;0.60;;;9.60;99.90;8.90;93815.00;;;;5056944;28;20188;-59
2023/10/27 06:01:17;;;;;;;0.60;0.60;;;9.60;99.90;8.90;93812.00;;;;5056486;28;20208;-59
2023/10/27 06:03:44;;;;;;;0.63;0.63;;;9.60;99.90;8.90;93823.00;;;;5056337;28;20228;-58
2023/10/27 06:06:11;;;;;;;1.00;1.00;;;9.60;99.90;8.90;93825.00;;;;5056733;28;20188;-59
2023/10/27 06:08:42;;;;;;;1.40;0.70;;;9.60;99.90;8.80;93825.00;;;;5056383;28;20556;-59
2023/10/27 06:11:09;;;;;;;0.60;0.60;;;9.50;99.90;9.00;93821.00;;;;5056527;28;20632;-58
2023/10/27 06:13:38;;;;;;;0.60;0.60;;;9.70;99.90;9.00;93830.00;;;;5056064;28;20191;-58
2023/10/27 06:16:06;;;;;;;0.80;0.80;;;9.70;99.90;8.90;93838.00;;;;5056043;28;20694;-59
2023/10/27 06:18:34;;;;;;;0.50;0.50;;;9.70;99.90;8.80;93847.00;;;;5056608;28;20201;-58
2023/10/27 06:21:02;;;;;;;0.63;0.63;;;9.50;99.90;8.80;93845.00;;;;5056209;28;20287;-58
2023/10/27 06:23:29;;;;;;;0.70;0.70;;;9.50;99.90;8.80;93853.00;;;;5056180;28;20659;-59
2023/10/27 06:25:56;;;;;;;0.60;0.60;;;9.50;99.90;8.90;93852.00;;;;5056261;28;20199;-59
2023/10/27 06:28:23;;;;;;;0.60;0.60;;;;;9.00;93852.00;;;;5055985;28;20557;-58
2023/10/27 06:30:52;;;;;;;0.50;0.50;;;9.60;99.90;9.10;93856.00;;;;5038705;28;20253;-59
2023/10/27 06:33:20;;;;;;;0.90;0.90;;;9.70;99.90;9.20;93866.00;;;;5056286;28;20184;-59
2023/10/27 06:35:49;;;;;;;0.60;0.60;;;9.80;99.90;9.10;93858.00;;;;5056715;28;20191;-58
2023/10/27 06:38:16;;;;;;;0.60;0.60;;;9.80;99.90;9.30;93876.00;;;;5056264;28;20295;-58
2023/10/27 06:40:43;;;;;;;0.70;0.70;;;9.80;99.90;9.40;93870.00;;;;5056317;28;20192;-58
2023/10/27 06:43:10;;;;;;;0.50;0.50;;;;;9.30;93881.00;;;;5055552;28;20707;-58
2023/10/27 06:45:37;;;;;;;0.60;0.60;;;10.00;99.90;9.30;93888.00;;;;5055931;28;20191;-59
2023/10/27 06:48:06;;;;;;;0.50;0.50;;;10.00;99.90;9.50;93884.00;;;;5037708;28;20196;-59
2023/10/27 06:50:33;;;;;;;0.80;0.80;;;10.10;99.90;9.40;93880.00;;;;5052594;28;20647;-63
2023/10/27 06:53:00;;;;;;;1.20;1.10;;;10.10;99.90;9.50;93890.00;;;;5053407;28;20212;-63
2023/10/27 06:55:27;;;;;;;0.60;0.60;;;10.10;99.90;9.50;93891.00;;;;5054251;28;20196;-63
2023/10/27 06:57:54;;;;;;;0.57;0.57;;;10.20;99.90;9.50;93891.00;;;;5055219;28;20204;-62
2023/10/27 07:00:21;;;;;;;1.17;1.17;;;10.20;99.90;9.50;93882.00;;;;5055792;28;20216;-62
2023/10/27 07:02:49;;;;;;;0.97;0.97;;;10.10;99.90;9.40;93891.00;;;;5054755;28;20212;-62
2023/10/27 07:05:17;;;;;;;0.67;0.67;;;9.90;99.90;9.40;93883.00;;;;5055583;28;20202;-62
2023/10/27 07:07:45;;;;;;;0.70;0.70;;;;;9.40;93903.00;;;;5055163;28;20191;-62
2023/10/27 07:10:12;;;;;;;0.60;0.60;;;10.10;90.40;9.40;93888.00;;;;5052984;28;20234;-58
2023/10/27 07:12:39;;;;;;;5.40;1.07;;;10.10;91.10;9.30;93896.00;;;;5051729;28;20234;-59
2023/10/27 07:15:08;;;;;;;0.70;0.70;;;9.90;92.70;9.40;93891.00;;;;5053280;28;20198;-59
2023/10/27 07:17:35;;;;;;;0.83;0.83;;;10.00;93.90;9.20;93895.00;;;;5053952;28;20766;-60
2023/10/27 07:20:03;;;;;;;0.80;0.80;;;9.90;93.80;9.30;93891.00;;;;5054274;28;20191;-60
2023/10/27 07:22:31;;;;;;;0.50;0.50;;;9.90;94.20;9.20;93903.00;;;;5053747;28;20248;-60
2023/10/27 07:24:59;;;;;;;0.60;0.60;;;;;9.30;93906.00;;;;5054534;28;20664;-59
2023/10/27 07:27:26;;;;;;;0.60;0.60;;;;;9.40;93902.00;;;;5052828;28;20283;-59
2023/10/27 07:29:54;;;;;;;0.70;0.70;;;10.00;92.70;9.50;93898.00;;;;5054524;28;20203;-60
2023/10/27 07:32:22;;;;;;;0.50;0.50;;;10.10;93.20;9.40;93912.00;;;;5054047;28;20216;-59
2023/10/27 07:34:49;;;;;;;0.80;0.80;;;10.10;93.60;9.40;93911.00;;;;5053598;28;20188;-60
2023/10/27 07:37:19;;;;;;;0.60;0.60;;;10.10;93.80;9.40;93897.00;;;;5053162;28;20622;-59
2023/10/27 07:39:48;;;;;;;0.60;0.60;;;10.10;93.60;9.60;93927.00;;;;5053107;28;20188;-59
2023/10/27 07:42:15;;;;;;;0.60;0.60;;;10.20;93.20;9.70;93926.00;;;;5051959;28;20258;-59
2023/10/27 07:44:43;;;;;;;0.50;0.50;;;10.30;92.30;9.70;93942.00;;;;5053142;28;20204;-60
2023/10/27 07:47:10;;;;;;;0.67;0.67;;;10.20;91.40;9.60;93932.00;;;;5052632;28;20206;-59
2023/10/27 07:49:37;;;;;;;0.63;0.63;;;10.30;91.70;9.60;93925.00;;;;5051012;28;20271;-59
2023/10/27 07:52:05;;;;;;;0.80;0.80;;;10.30;92.00;9.60;93935.00;;;;5051206;28;20250;-59
2023/10/27 07:54:33;;;;;;;0.83;0.83;;;10.30;90.50;9.70;93940.00;;;;5051402;28;20200;-59
2023/10/27 07:57:01;;;;;;;0.60;0.60;;;10.30;91.30;9.60;93928.00;;;;5052791;28;20230;-58
2023/10/27 07:59:29;;;;;;;0.60;0.60;;;10.30;89.00;9.70;93939.00;;;;5053466;28;20207;-58
2023/10/27 08:01:57;;;;;;;0.50;0.50;;;10.40;98.70;9.90;93928.00;;;;5051613;28;20223;-58
2023/10/27 08:04:25;;;;;;;0.60;0.60;;;10.40;87.60;9.80;93945.00;;;;5053341;28;20234;-59
2023/10/27 08:06:52;;;;;;;0.50;0.50;;;10.50;87.50;9.90;93961.00;;;;5053637;28;20242;-59
2023/10/27 08:09:20;;;;;;;0.93;0.93;;;;;9.70;93951.00;;;;5052389;28;20195;-60
2023/10/27 08:11:50;;;;;;;0.60;0.60;;;10.40;87.00;9.80;93959.00;;;;5052175;28;20231;-59
2023/10/27 08:14:18;;;;;;;0.60;0.60;;;10.50;88.70;9.90;93971.00;;;;5050400;28;20291;-60
2023/10/27 08:16:46;;;;;;;0.60;0.60;;;10.50;87.00;9.80;93967.00;;;;5051984;28;20196;-58
2023/10/27 08:19:13;;;;;;;0.50;0.50;;;10.50;87.10;9.90;93970.00;;;;5051996;28;20278;-59
2023/10/27 08:21:41;;;;;;;0.60;0.60;;;10.50;86.70;9.90;93984.00;;;;5051812;28;20634;-59
2023/10/27 08:24:09;;;;;;;0.60;0.60;;;10.60;87.50;9.90;93972.00;;;;5050221;28;20238;-59
2023/10/27 08:26:37;;;;;;;0.60;0.60;;;10.60;87.80;10.00;93988.00;;;;5053751;28;20262;-59
2023/10/27 08:29:04;;;;;;;0.50;0.50;;;10.70;88.50;9.90;93961.00;;;;5052899;28;20275;-59
2023/10/27 08:31:32;;;;;;;0.50;0.50;;;10.60;88.00;9.70;93980.00;;;;5052767;28;20220;-59
2023/10/27 08:34:00;;;;;;;0.60;0.60;;;10.40;88.20;9.80;93984.00;;;;5053230;28;20196;-58
2023/10/27 08:36:28;;;;;;;0.60;0.60;;;10.40;89.30;9.60;93991.00;;;;5053389;28;20192;-59
2023/10/27 08:38:56;;;;;;;0.70;0.70;;;10.40;89.20;9.80;93991.00;;;;5053110;28;20238;-59
2023/10/27 08:41:25;;;;;;;0.60;0.60;;;10.40;90.80;9.80;93993.00;;;;5055700;28;20212;-60
2023/10/27 08:43:54;;;;;;;0.60;0.60;;;10.50;90.80;9.80;93987.00;;;;5057090;28;20242;-58
2023/10/27 08:46:22;;;;;;;0.50;0.50;;;10.50;91.00;10.00;93993.00;;;;5056961;28;20215;-59
2023/10/27 08:48:51;;;;;;;0.50;0.50;;;10.60;90.90;10.10;93996.00;;;;5056791;28;20655;-59
2023/10/27 08:51:20;;;;;;;0.60;0.60;;;10.80;90.00;10.10;93992.00;;;;5057111;28;20208;-58
2023/10/27 08:53:48;;;;;;;0.60;0.60;;;10.80;89.00;10.00;94003.00;;;;5056881;28;20220;-59
2023/10/27 08:56:16;;;;;;;0.60;0.60;;;10.70;90.40;10.20;93986.00;;;;5056909;28;20240;-58
2023/10/27 08:58:50;;;;;;;0.57;0.57;;;10.80;90.40;10.20;94003.00;;;;5056917;28;20238;-60
2023/10/27 09:01:17;;;;;;;0.70;0.70;;;10.90;90.40;10.30;94004.00;;;;5055309;28;20231;-58
2023/10/27 09:04:11;;;;;;;0.60;0.60;;;10.80;88.40;10.10;94014.00;;;;5056936;28;20773;-58
2023/10/27 09:06:40;;;;;;;0.70;0.70;;;10.80;90.00;10.10;94021.00;;;;5057771;28;20280;-59
2023/10/27 09:09:09;;;;;;;0.50;0.50;;;10.80;89.90;10.10;94016.00;;;;5057075;28;20192;-59
2023/10/27 09:11:42;;;;;;;0.60;0.60;;;10.80;91.60;10.10;94012.00;;;;5057415;28;20220;-59
2023/10/27 09:14:22;;;;;;;0.50;0.50;;;10.80;92.20;9.90;94040.00;;;;5052411;28;20336;-59
2023/10/27 09:16:50;;;;;;;0.63;0.63;;;10.60;92.60;9.90;94049.00;;;;5057427;28;20188;-59
2023/10/27 09:19:25;;;;;;;0.90;0.90;;;10.50;94.40;9.80;94048.00;;;;5057177;28;20754;-59
2023/10/27 09:21:53;;;;;;;0.93;0.93;;;10.50;94.80;9.70;94049.00;;;;5057449;28;20302;-58
2023/10/27 09:24:25;;;;;;;0.70;0.70;;;10.40;95.00;9.80;94047.00;;;;5057211;28;20606;-58
2023/10/27 09:26:54;;;;;;;0.60;0.60;;;10.50;94.50;9.80;94053.00;;;;5053971;28;20204;-59
2023/10/27 09:29:22;;;;;;;0.60;0.60;;;10.40;95.10;10.10;94060.00;;;;5057620;28;20225;-59
2023/10/27 09:31:52;;;;;;;0.60;0.60;;;10.70;95.80;9.80;94058.00;;;;5055409;28;20633;-58
2023/10/27 09:34:23;;;;;;;0.53;0.53;;;10.50;94.10;9.80;94062.00;;;;5056591;28;20270;-58
2023/10/27 09:36:52;;;;;;;0.70;0.70;;;10.50;94.30;10.30;94053.00;;;;5050020;28;20663;-59
2023/10/27 09:39:22;;;;;;;0.50;0.50;;;10.80;94.30;10.40;94064.00;;;;5053016;28;20587;-58
2023/10/27 09:42:02;;;;;;;0.70;0.70;;;11.00;92.20;10.30;94082.00;;;;5055462;28;20216;-58
2023/10/27 09:44:44;;;;;;;0.70;0.70;;;10.80;96.60;10.00;94088.00;;;;5055558;28;20196;-58
2023/10/27 09:47:23;;;;;;;0.60;0.60;;;10.70;91.00;10.00;94096.00;;;;5056647;28;20188;-58
2023/10/27 09:50:05;;;;;;;0.60;0.60;;;10.70;99.50;10.10;94089.00;;;;5053203;28;20714;-58
2023/10/27 09:52:34;;;;;;;0.60;0.60;;;10.80;91.60;10.20;94096.00;;;;5055293;28;20211;-58
2023/10/27 09:55:03;;;;;;;0.60;0.60;;;10.80;91.10;10.20;94094.00;;;;5035660;28;20196;-60
2023/10/27 09:57:31;;;;;;;0.70;0.70;;;10.80;91.80;10.30;94104.00;;;;5055321;28;20189;-59
2023/10/27 10:00:00;;;;;;;0.60;0.60;;;10.90;91.20;10.10;94108.00;;;;5055842;28;20188;-58
2023/10/27 10:02:30;;;;;;;3.40;1.00;;;10.60;89.20;9.90;94114.00;;;;5055952;28;20212;-59
2023/10/27 10:05:02;;;;;;;0.80;0.80;;;10.60;90.10;9.80;94121.00;;;;5054634;28;20184;-58
2023/10/27 10:07:31;;;;;;;0.50;0.50;;;10.40;95.60;9.80;94128.00;;;;5055692;28;20651;-57
2023/10/27 10:09:59;;;;;;;0.70;0.70;;;10.50;93.00;10.00;94122.00;;;;5053919;28;20275;-58
2023/10/27 10:12:26;;;;;;;0.60;0.60;;;10.60;92.10;10.00;94115.00;;;;5054283;28;20239;-58
2023/10/27 10:14:59;;;;;;;1.00;0.93;;;10.60;91.10;10.40;94124.00;;;;5054556;28;20200;-58
2023/10/27 10:17:40;;;;;;;0.60;0.60;;;11.10;90.60;10.70;94113.00;;;;5054553;28;20188;-58
2023/10/27 10:20:10;;;;;;;0.50;0.50;;;11.40;87.60;10.90;94108.00;;;;5036751;28;20192;-58
2023/10/27 10:22:53;;;;;;;0.60;0.60;;;11.40;88.30;10.70;94124.00;;;;5054144;28;20223;-58
2023/10/27 10:25:29;;;;;;;1.00;1.00;;;11.30;85.90;10.80;94127.00;;;;5050096;28;20250;-58
2023/10/27 10:28:25;;;;;;;0.50;0.50;;;11.40;84.90;10.80;94127.00;;;;5054124;28;20188;-58
2023/10/27 10:31:25;;;;;;;0.50;0.50;;;11.40;85.30;10.60;94124.00;;;;5050201;28;20216;-58
2023/10/27 10:34:10;;;;;;;0.50;0.50;;;11.30;84.80;10.50;94127.00;;;;5054578;28;20184;-58
2023/10/27 10:36:40;;;;;;;0.60;0.60;;;11.20;89.10;10.70;94124.00;;;;5053623;28;20227;-58
2023/10/27 10:39:10;;;;;;;0.60;0.60;;;11.40;85.10;10.70;94142.00;;;;5053151;28;20698;-59
2023/10/27 10:42:03;;;;;;;0.90;0.90;;;11.30;85.40;10.90;94122.00;;;;5053977;28;20311;-60
2023/10/27 10:44:31;;;;;;;0.60;0.60;;;11.30;81.90;10.60;94127.00;;;;5053372;28;20184;-59
2023/10/27 10:47:04;;;;;;;0.70;0.70;;;11.20;80.50;10.90;94119.00;;;;5053146;28;20199;-59
2023/10/27 10:49:33;;;;;;;0.70;0.70;;;11.40;88.70;11.10;94109.00;;;;5053110;28;20223;-59
2023/10/27 10:52:02;;;;;;;0.60;0.60;;;11.60;93.30;11.40;94113.00;;;;5053665;28;20224;-59
2023/10/27 10:54:32;;;;;;;0.87;0.87;;;12.50;81.10;12.30;94111.00;;;;5052362;28;20227;-59
2023/10/27 10:57:07;;;;;;;0.70;0.70;;;12.50;80.80;12.40;94108.00;;;;5054898;28;20283;-62
2023/10/27 10:59:36;;;;;;;0.70;0.70;;;;;12.30;94106.00;;;;5054385;28;20208;-62
2023/10/27 11:02:05;;;;;;;0.50;0.50;;;;;12.50;94093.00;;;;5049492;28;20284;-62
2023/10/27 11:04:34;;;;;;;0.50;0.50;;;12.70;74.60;12.10;94106.00;;;;5053447;28;20192;-63
2023/10/27 11:07:06;;;;;;;0.60;0.60;;;;;11.50;94120.00;;;;5054140;28;20188;-62
2023/10/27 11:09:33;;;;;;;0.70;0.70;;;;;11.40;94115.00;;;;5055013;28;20184;-64
2023/10/27 11:12:03;;;;;;;0.50;0.50;;;;;11.60;94114.00;;;;5053391;28;20220;-59
2023/10/27 11:14:40;;;;;;;0.50;0.50;;;;;11.70;94117.00;;;;5054026;28;20223;-58